Main page
METAR-TAF:

METAR-TAF

Airports :

Beaumont Municipal Airport

Beaumont, Texas, United States

latitude: 30-04-13N, longitude: 094-12-54W, elevation: 33 ft

Current weather observation

The report was made 25 minutes ago, at 22:15 UTC
Wind 7 mph from the South
Temperature 77°F
Humidity 83%
Pressure 29.71 in. Hg
Visibility: 7 miles
Broken clouds at a height of 1400 ft
Overcast at a height of 1800 ft

METAR: KBMT 252215Z AUTO 19006KT 7SM BKN014 OVC018 25/22 A2971 RMK AO2 T02450220

Time: 15:40 (22:40 UTC)


TAF: missing

Weather observations and forecasts of more than 4000 airports (METAR and TAF reports).

The available stations are represented by yellow and red dots on the map.

Hover mouse over dot to see the name of the station.

Then click to see weather observations and forecasts.

To change the map : click on the green buttons with a black cross to zoom in, on the green button with a dash to zoom out, or on the green arrows for adjacent maps.


METAR-TAF: